Terminal Aerodrome Forecast
Issued by NWS Charleston, WV

Current Version | Previous Version | Graphics & Text | Print | Product List | Glossary On
Versions: 1 2 3 4 5 6 7 8 9 10 11 12 13 14 15 16 17 18 19 20 21 22 23 24 25 26
000
FTUS41 KRLX 311100
TAFBKW
TAF
KBKW 311120Z 3112/0112 23008KT P6SM SCT150
     FM311500 24012G19KT P6SM SCT100
     FM311800 24017G30KT P6SM BKN080
     FM312000 26019G31KT P6SM BKN060
     FM312300 30017G27KT P6SM BKN050
     FM010100 31015G22KT P6SM SCT035
     FM010500 33010KT P6SM SCT040=

USA.gov is the U.S. government's official web portal to all federal, state and local government web resources and services.